2016 Springfield Knights of Columbus 5K Run
Burke Lake Park, VA 
Saturday September 15, 2018 9:00 AM

********** Age Group Results**************


********** FEMALE OVERALL RESULTS ***********

PlaceO'All NameAgeTimePace 
MEGHAN GORDAN 34 22:07 7:07
KARA CURRY 13 24:11 7:47
15  GRETCHEN LARCHICK 40 27:02 8:43


********** MALE OVERALL RESULTS ***********

PlaceO'All NameAgeTimePace 
PHILIP VARGAS 26 19:41 6:20
JONAH BERKEY 9 22:39 7:18
SABASHTION MEYERS 11 23:32 7:35
 
 


FEMALE AGE GROUP: 1 - 8

PlaceO'All NameAgeTimePace 
34  ADRIANNA SALINDA-PIRATO 8 35:49 11:32
90  ALYSSA REYES 7 56:42 18:15
111  ADELYN AVILES 5 1:05:51 21:12


MALE AGE GROUP: 1 - 8

PlaceO'All NameAgeTimePace 
13  JAXSON KORBER 8 25:47 8:18
24  CHARLES LARCHICK 7 32:32 10:28
28  NOLAN BERKEY 7 33:39 10:50


FEMALE AGE GROUP: 09 - 13

PlaceO'All NameAgeTimePace 
27  FRANCES TIGANI 11 33:37 10:50
32  DANIELLE RODRIGUEZ 11 34:00 10:57
36  KELBEY LARCHICK 10 36:03 11:37
37  MARIA SANDS-PINGOT 10 36:13 11:40
46  KELSEY CURRY 13 41:15 13:17
52  TORREN MEYERS 12 43:05 13:52
53  VIRGINIA CHEATHAM 10 43:05 13:52
60  CHARLOTTE RHODES 12 45:35 14:41
82  SAMANTHA CRUZ 12 56:11 18:05
10  83  RYLIEGH LUCIER 12 56:12 18:06
11  84  TAYLOR ERICKSON 11 56:12 18:06
12  98  KATIE TUMBERELLO 10 58:03 18:41
13  101  BRIANNA LUCIER 10 58:14 18:45
14  109  LAUREN MENGEL 10 1:03:36 20:29


MALE AGE GROUP: 09 - 13

PlaceO'All NameAgeTimePace 
NOAH BEARD 12 23:57 7:43
10  PJ MOYER 13 25:26 8:11
11  JAVIER GARCIA 11 25:32 8:14
16  JOEY IYOB 13 29:09 9:23
17  RYAN CURRY 13 29:11 9:24
20  JOHN HALICK 12 31:45 10:13
22  JACK TIGANI 13 32:09 10:21
31  DAVID SKELTON 12 33:51 10:54
49  MATTHEW SKELTON 10 42:01 13:32


FEMALE AGE GROUP: 14 - 19

PlaceO'All NameAgeTimePace 
67  ALEXANDRA BARRICLE 16 49:22 15:54
68  MELIA CRONIN 16 49:23 15:54


MALE AGE GROUP: 14 - 19

PlaceO'All NameAgeTimePace 
57  NATHAN REYES 17 44:27 14:19
79  ATHAN RODGERS 16 53:38 17:16
93  PETER HALICK 14 57:32 18:31


FEMALE AGE GROUP: 20 - 35

PlaceO'All NameAgeTimePace 
39  AMEYALLY BAKER 28 38:21 12:21
77  CHRISTINA D'ALELIO 24 53:27 17:13
78  KELLY HERLIEHY 27 53:27 17:13
80  AUDREY ALLMAN 22 53:45 17:18
108  ASHLEY DAVIS 32 1:02:26 20:06


MALE AGE GROUP: 20 - 35

PlaceO'All NameAgeTimePace 
14  TIM SIGNORELLI 35 26:11 8:26
35  CHRIS BARRETT 33 35:59 11:35
62  JONAS CLAES 33 46:08 14:51


FEMALE AGE GROUP: 36 - 50

PlaceO'All NameAgeTimePace 
29  YEN TIGANI 45 33:40 10:51
41  ELLIETH RODRIGUEZ 44 38:25 12:22
42  KRISTIE MEYERS 38 40:28 13:02
50  JENNIFER SKELTON 44 42:19 13:38
56  JOY ANN REYES 42 44:26 14:19
61  LAURA BLANCO 36 46:06 14:51
75  DORA RODGERS 37 52:15 16:49
81  MARLENY SALDANA 43 56:10 18:05
97  MARY HALICK 43 57:59 18:40
10  100  SANDRA BARRICK 50 58:11 18:44
11  103  BARBARA TUMBERELLO 49 58:33 18:51
12  112  MARCY AVILES 40 1:05:51 21:12
13  113  VERONICA ALLEN 46 1:09:42 22:26
14  114  DIANA GENTLE 43 1:11:58 23:10


MALE AGE GROUP: 36 - 50

PlaceO'All NameAgeTimePace 
MIKE HALICK 45 24:06 7:46
12  JUSTIN KORBER 38 25:44 8:17
23  DALE BERKEY 38 32:19 10:25
25  JEREMY LARCHICK 43 32:34 10:29
30  JAMES SKELTON 44 33:50 10:54
38  MARK MOYER 49 37:27 12:04
40  SCOTT BAKER 42 38:22 12:21
43  MARK MEYERS 39 40:31 13:03
66  VIDA BEARD 43 48:43 15:41
10  73  MANNY RODRIGUEZ 43 52:01 16:45
11  74  DANIEL LOZARES 36 52:14 16:49
12  76  SAUL CRUZ 37 53:26 17:12
13  91  GABRIEL REYES 41 56:56 18:20
14  107  THOMAS DAVIS 42 1:00:23 19:27


FEMALE AGE GROUP: 50 - 99

PlaceO'All NameAgeTimePace 
33  LAURA VARGAS 59 35:38 11:29
47  BENEDICTA OLIVEROS 60 41:19 13:18
48  KARON CURRY 53 41:33 13:23
58  NIMA RINI 66 45:08 14:32
59  MARY RYAN 58 45:13 14:34
64  MICHELLE MCDONNELL 54 48:19 15:34
65  DEBBI BEARD 53 48:42 15:41
86  CARMEN GARCIA 55 56:22 18:09
87  SALLY ALLMAN 59 56:23 18:09
10  94  WENDY LELEUX 51 57:54 18:39
11  99  BARBARA PECKL 53 58:11 18:44
12  100  SANDRA BARRICK 50 58:11 18:44
13  102  DEBORAH LUCIER 63 58:22 18:48
14  105  DONNA LASH 71 59:26 19:08


MALE AGE GROUP: 50 - 99

PlaceO'All NameAgeTimePace 
DOUGLAS VARGAS 58 24:02 7:44
THOMAS SMITH 55 24:26 7:52
18  JOE THEIS 53 31:26 10:07
19  MIKE MCNULTY 69 31:28 10:08
21  JOHN GOETCHIUS 64 31:54 10:16
44  TOM RINI 69 40:53 13:10
51  JOHN RUBNACKER 71 43:03 13:52
54  ROBERT CHEATHAM 55 43:18 13:57
55  GUY SANDS-PINGOT 61 43:20 13:57
10  69  MARK PRICE 56 49:53 16:04
11  70  JOSEPH MCDONNNELL 59 49:53 16:04
12  85  EREN GARCIA 57 56:21 18:08
13  88  GARY LUCIER 63 56:32 18:12
14  95  DARRIN LELEUX 51 57:55 18:39
15  96  JAY RHODES 53 57:57 18:39
16  104  STEVE TUMBERELLO 57 58:34 18:51
17  106  FRED LASH 73 59:26 19:08
18  110  JOHN MENGEL 58 1:03:41 20:30
Joomla templates by a4joomla